Time,TemperatureF,DewpointF,PressureIn,WindDirection,WindDirectionDegrees,WindSpeedMPH,WindSpeedGustMPH,Humidity,HourlyPrecipIn,Conditions,Clouds,dailyrainin,SolarRadiationWatts/m^2,SoftwareType,DateUTC
2013-01-25 00:03:00,13.0,-5.0,-100.00,West,281,6.0,16.0,43,0.00,,,0.00,1.000000,,2013-01-25 05:03:00,
2013-01-25 00:12:00,13.0,-5.0,-100.00,West,281,6.0,16.0,43,0.00,,,0.00,1.000000,,2013-01-25 05:12:00,
2013-01-25 00:22:00,13.0,-5.0,-100.00,West,281,6.0,16.0,43,0.00,,,0.00,1.000000,,2013-01-25 05:22:00,
2013-01-25 00:52:00,13.0,-5.0,-100.00,West,274,7.0,17.0,44,0.00,,,0.00,1.000000,,2013-01-25 05:52:00,
2013-01-25 01:02:00,13.0,-5.0,-100.00,West,274,7.0,17.0,44,0.00,,,0.00,1.000000,,2013-01-25 06:02:00,
2013-01-25 01:12:00,13.0,-5.0,-100.00,West,274,7.0,17.0,44,0.00,,,0.00,1.000000,,2013-01-25 06:12:00,
2013-01-25 01:22:00,13.0,-5.0,-100.00,West,274,7.0,17.0,44,0.00,,,0.00,1.000000,,2013-01-25 06:22:00,
2013-01-25 01:52:00,13.0,-5.0,-100.00,WNW,293,7.0,18.0,43,0.00,,,0.00,1.000000,,2013-01-25 06:52:00,
2013-01-25 02:02:00,13.0,-5.0,-100.00,WNW,293,7.0,18.0,43,0.00,,,0.00,1.000000,,2013-01-25 07:02:00,
2013-01-25 02:11:00,13.0,-5.0,-100.00,WNW,293,7.0,18.0,43,0.00,,,0.00,1.000000,,2013-01-25 07:11:00,
2013-01-25 02:22:00,13.0,-5.0,-100.00,WNW,293,7.0,18.0,43,0.00,,,0.00,1.000000,,2013-01-25 07:22:00,
2013-01-25 02:52:00,12.0,-7.0,-100.00,WNW,295,6.0,16.0,41,0.00,,,0.00,1.000000,,2013-01-25 07:52:00,
2013-01-25 03:02:00,12.0,-7.0,-100.00,WNW,295,6.0,16.0,41,0.00,,,0.00,1.000000,,2013-01-25 08:02:00,
2013-01-25 03:12:00,12.0,-7.0,-100.00,WNW,295,6.0,16.0,41,0.00,,,0.00,1.000000,,2013-01-25 08:12:00,
2013-01-25 03:22:00,12.0,-7.0,-100.00,WNW,295,6.0,16.0,41,0.00,,,0.00,1.000000,,2013-01-25 08:22:00,
2013-01-25 03:52:00,11.0,-8.0,-100.00,WNW,282,4.0,10.0,42,0.00,,,0.00,1.000000,,2013-01-25 08:52:00,
2013-01-25 04:02:00,11.0,-8.0,-100.00,WNW,282,4.0,10.0,42,0.00,,,0.00,1.000000,,2013-01-25 09:02:00,
2013-01-25 04:11:00,11.0,-8.0,-100.00,WNW,282,4.0,10.0,42,0.00,,,0.00,1.000000,,2013-01-25 09:11:00,
2013-01-25 04:21:00,11.0,-8.0,-100.00,WNW,282,4.0,10.0,42,0.00,,,0.00,1.000000,,2013-01-25 09:21:00,
2013-01-25 04:52:00,10.0,-8.0,-100.00,West,270,3.0,9.0,42,0.00,,,0.00,1.000000,,2013-01-25 09:52:00,
2013-01-25 05:02:00,10.0,-8.0,-100.00,West,270,3.0,9.0,42,0.00,,,0.00,1.000000,,2013-01-25 10:02:00,
2013-01-25 05:12:00,10.0,-8.0,-100.00,West,270,3.0,9.0,42,0.00,,,0.00,1.000000,,2013-01-25 10:12:00,
2013-01-25 05:22:00,10.0,-8.0,-100.00,West,270,3.0,9.0,42,0.00,,,0.00,1.000000,,2013-01-25 10:22:00,
2013-01-25 05:52:00,9.0,-9.0,-100.00,West,272,3.0,7.0,43,0.00,,,0.00,1.000000,,2013-01-25 10:52:00,
2013-01-25 06:03:00,9.0,-9.0,-100.00,West,272,3.0,7.0,43,0.00,,,0.00,1.000000,,2013-01-25 11:03:00,
2013-01-25 06:11:00,9.0,-9.0,-100.00,West,272,3.0,7.0,43,0.00,,,0.00,1.000000,,2013-01-25 11:11:00,
2013-01-25 06:22:00,9.0,-9.0,-100.00,West,272,3.0,7.0,43,0.00,,,0.00,1.000000,,2013-01-25 11:22:00,
2013-01-25 06:52:00,8.0,-8.0,-100.00,West,267,3.0,7.0,46,0.00,,,0.00,0.000000,,2013-01-25 11:52:00,
2013-01-25 07:03:00,8.0,-8.0,-100.00,West,267,3.0,7.0,46,0.00,,,0.00,0.000000,,2013-01-25 12:03:00,
2013-01-25 07:12:00,8.0,-8.0,-100.00,West,267,3.0,7.0,46,0.00,,,0.00,0.000000,,2013-01-25 12:12:00,
2013-01-25 07:22:00,8.0,-8.0,-100.00,West,267,3.0,7.0,46,0.00,,,0.00,0.000000,,2013-01-25 12:22:00,
2013-01-25 07:53:00,9.0,-8.0,-100.00,West,264,2.0,6.0,45,0.00,,,0.00,7.000000,,2013-01-25 12:53:00,
2013-01-25 08:03:00,9.0,-8.0,-100.00,West,264,2.0,6.0,45,0.00,,,0.00,7.000000,,2013-01-25 13:03:00,
2013-01-25 08:12:00,9.0,-8.0,-100.00,West,264,2.0,6.0,45,0.00,,,0.00,7.000000,,2013-01-25 13:12:00,
2013-01-25 08:22:00,9.0,-8.0,-100.00,West,264,2.0,6.0,45,0.00,,,0.00,7.000000,,2013-01-25 13:22:00,
2013-01-25 08:53:00,14.0,-7.0,-100.00,West,270,5.0,10.0,37,0.00,,,0.00,97.000000,,2013-01-25 13:53:00,
2013-01-25 09:03:00,14.0,-7.0,-100.00,West,270,5.0,10.0,37,0.00,,,0.00,97.000000,,2013-01-25 14:03:00,
2013-01-25 09:13:00,14.0,-7.0,-100.00,West,270,5.0,10.0,37,0.00,,,0.00,97.000000,,2013-01-25 14:13:00,
2013-01-25 09:23:00,14.0,-7.0,-100.00,West,270,5.0,10.0,37,0.00,,,0.00,97.000000,,2013-01-25 14:23:00,
2013-01-25 09:53:00,17.0,-8.0,-100.00,NW,306,8.0,15.0,31,0.00,,,0.00,231.000000,,2013-01-25 14:53:00,
2013-01-25 10:03:00,17.0,-8.0,-100.00,NW,306,8.0,15.0,31,0.00,,,0.00,231.000000,,2013-01-25 15:03:00,
2013-01-25 10:13:00,17.0,-8.0,-100.00,NW,306,8.0,15.0,31,0.00,,,0.00,231.000000,,2013-01-25 15:13:00,
2013-01-25 10:22:00,17.0,-8.0,-100.00,NW,306,8.0,15.0,31,0.00,,,0.00,231.000000,,2013-01-25 15:22:00,
2013-01-25 10:53:00,19.0,-9.0,-100.00,NNW,328,9.0,18.0,27,0.00,,,0.00,344.000000,,2013-01-25 15:53:00,
2013-01-25 11:03:00,19.0,-9.0,-100.00,NNW,328,9.0,18.0,27,0.00,,,0.00,344.000000,,2013-01-25 16:03:00,
2013-01-25 11:12:00,19.0,-9.0,-100.00,NNW,328,9.0,18.0,27,0.00,,,0.00,344.000000,,2013-01-25 16:12:00,
2013-01-25 11:23:00,19.0,-9.0,-100.00,NNW,328,9.0,18.0,27,0.00,,,0.00,344.000000,,2013-01-25 16:23:00,
2013-01-25 11:53:00,24.0,-7.0,-100.00,WNW,282,5.0,12.0,24,0.00,,,0.00,414.000000,,2013-01-25 16:53:00,
2013-01-25 12:03:00,24.0,-7.0,-100.00,WNW,282,5.0,12.0,24,0.00,,,0.00,414.000000,,2013-01-25 17:03:00,
2013-01-25 12:12:00,24.0,-7.0,-100.00,WNW,282,5.0,12.0,24,0.00,,,0.00,414.000000,,2013-01-25 17:12:00,
2013-01-25 12:22:00,24.0,-7.0,-100.00,WNW,282,5.0,12.0,24,0.00,,,0.00,414.000000,,2013-01-25 17:22:00,
2013-01-25 12:53:00,25.0,-7.0,-100.00,WNW,293,6.0,12.0,24,0.00,,,0.00,400.000000,,2013-01-25 17:53:00,
2013-01-25 13:03:00,25.0,-7.0,-100.00,WNW,293,6.0,12.0,24,0.00,,,0.00,400.000000,,2013-01-25 18:03:00,
2013-01-25 13:12:00,25.0,-7.0,-100.00,WNW,293,6.0,12.0,24,0.00,,,0.00,400.000000,,2013-01-25 18:12:00,
2013-01-25 13:23:00,25.0,-7.0,-100.00,WNW,293,6.0,12.0,24,0.00,,,0.00,400.000000,,2013-01-25 18:23:00,
2013-01-25 13:53:00,25.0,-7.0,-100.00,NW,320,5.0,10.0,24,0.00,,,0.00,354.000000,,2013-01-25 18:53:00,
2013-01-25 14:03:00,25.0,-7.0,-100.00,NW,320,5.0,10.0,24,0.00,,,0.00,354.000000,,2013-01-25 19:03:00,
2013-01-25 14:12:00,25.0,-7.0,-100.00,NW,320,5.0,10.0,24,0.00,,,0.00,354.000000,,2013-01-25 19:12:00,
2013-01-25 14:23:00,25.0,-7.0,-100.00,NW,320,5.0,10.0,24,0.00,,,0.00,354.000000,,2013-01-25 19:23:00,
2013-01-25 14:53:00,26.0,-6.0,-100.00,WNW,303,5.0,10.0,24,0.00,,,0.00,300.000000,,2013-01-25 19:53:00,
2013-01-25 15:03:00,26.0,-6.0,-100.00,WNW,303,5.0,10.0,24,0.00,,,0.00,300.000000,,2013-01-25 20:03:00,
2013-01-25 15:12:00,26.0,-6.0,-100.00,WNW,303,5.0,10.0,24,0.00,,,0.00,300.000000,,2013-01-25 20:12:00,
2013-01-25 15:23:00,26.0,-6.0,-100.00,WNW,303,5.0,10.0,24,0.00,,,0.00,300.000000,,2013-01-25 20:23:00,
2013-01-25 15:53:00,25.0,-3.0,-100.00,West,262,3.0,10.0,28,0.00,,,0.00,144.000000,,2013-01-25 20:53:00,
2013-01-25 16:02:00,25.0,-3.0,-100.00,West,262,3.0,10.0,28,0.00,,,0.00,144.000000,,2013-01-25 21:02:00,
2013-01-25 16:12:00,25.0,-3.0,-100.00,West,262,3.0,10.0,28,0.00,,,0.00,144.000000,,2013-01-25 21:12:00,
2013-01-25 16:23:00,25.0,-3.0,-100.00,West,262,3.0,10.0,28,0.00,,,0.00,144.000000,,2013-01-25 21:23:00,
2013-01-25 16:52:00,23.0,-4.0,-100.00,West,275,4.0,9.0,29,0.00,,,0.00,49.000000,,2013-01-25 21:52:00,
2013-01-25 17:03:00,23.0,-4.0,-100.00,West,275,4.0,9.0,29,0.00,,,0.00,49.000000,,2013-01-25 22:03:00,
2013-01-25 17:12:00,23.0,-4.0,-100.00,West,275,4.0,9.0,29,0.00,,,0.00,49.000000,,2013-01-25 22:12:00,
2013-01-25 17:23:00,23.0,-4.0,-100.00,West,275,4.0,9.0,29,0.00,,,0.00,49.000000,,2013-01-25 22:23:00,
2013-01-25 17:53:00,22.0,-3.0,-100.00,West,259,3.0,8.0,32,0.00,,,0.00,4.000000,,2013-01-25 22:53:00,
2013-01-25 18:02:00,22.0,-3.0,-100.00,West,259,3.0,8.0,32,0.00,,,0.00,4.000000,,2013-01-25 23:02:00,
2013-01-25 18:12:00,22.0,-3.0,-100.00,West,259,3.0,8.0,32,0.00,,,0.00,4.000000,,2013-01-25 23:12:00,
2013-01-25 18:22:00,22.0,-3.0,-100.00,West,259,3.0,8.0,32,0.00,,,0.00,4.000000,,2013-01-25 23:22:00,
2013-01-25 18:53:00,22.0,-2.0,-100.00,West,280,3.0,6.0,34,0.00,,,0.00,1.000000,,2013-01-25 23:53:00,
2013-01-25 19:02:00,22.0,-2.0,-100.00,West,280,3.0,6.0,34,0.00,,,0.00,1.000000,,2013-01-26 00:02:00,
2013-01-25 19:12:00,22.0,-2.0,-100.00,West,280,3.0,6.0,34,0.00,,,0.00,1.000000,,2013-01-26 00:12:00,
2013-01-25 19:22:00,22.0,-2.0,-100.00,West,280,3.0,6.0,34,0.00,,,0.00,1.000000,,2013-01-26 00:22:00,
2013-01-25 19:53:00,22.0,-2.0,-100.00,NW,312,2.0,6.0,34,0.00,,,0.00,1.000000,,2013-01-26 00:53:00,
2013-01-25 20:02:00,22.0,-2.0,-100.00,NW,312,2.0,6.0,34,0.00,,,0.00,1.000000,,2013-01-26 01:02:00,
2013-01-25 20:12:00,22.0,-2.0,-100.00,NW,312,2.0,6.0,34,0.00,,,0.00,1.000000,,2013-01-26 01:12:00,
2013-01-25 20:22:00,22.0,-2.0,-100.00,NW,312,2.0,6.0,34,0.00,,,0.00,1.000000,,2013-01-26 01:22:00,
2013-01-25 20:52:00,22.0,-2.0,-100.00,North,351,4.0,7.0,34,0.00,,,0.00,0.000000,,2013-01-26 01:52:00,
2013-01-25 21:02:00,22.0,-2.0,-100.00,North,351,4.0,7.0,34,0.00,,,0.00,0.000000,,2013-01-26 02:02:00,
2013-01-25 21:12:00,22.0,-2.0,-100.00,North,351,4.0,7.0,34,0.00,,,0.00,0.000000,,2013-01-26 02:12:00,
2013-01-25 21:22:00,22.0,-2.0,-100.00,North,351,4.0,7.0,34,0.00,,,0.00,0.000000,,2013-01-26 02:22:00,
2013-01-25 21:52:00,20.0,6.0,-100.00,NNW,340,5.0,8.0,53,0.00,,,0.00,1.000000,,2013-01-26 02:52:00,
2013-01-25 22:02:00,20.0,6.0,-100.00,NNW,340,5.0,8.0,53,0.00,,,0.00,1.000000,,2013-01-26 03:02:00,
2013-01-25 22:12:00,20.0,6.0,-100.00,NNW,340,5.0,8.0,53,0.00,,,0.00,1.000000,,2013-01-26 03:12:00,
2013-01-25 22:22:00,20.0,6.0,-100.00,NNW,340,5.0,8.0,53,0.00,,,0.00,1.000000,,2013-01-26 03:22:00,
2013-01-25 22:52:00,18.0,13.0,-100.00,North,350,5.0,9.0,79,0.00,,,0.00,0.000000,,2013-01-26 03:52:00,
2013-01-25 23:02:00,18.0,13.0,-100.00,North,350,5.0,9.0,79,0.00,,,0.00,0.000000,,2013-01-26 04:02:00,
2013-01-25 23:12:00,18.0,13.0,-100.00,North,350,5.0,9.0,79,0.00,,,0.00,0.000000,,2013-01-26 04:12:00,
2013-01-25 23:21:00,18.0,13.0,-100.00,North,350,5.0,9.0,79,0.00,,,0.00,0.000000,,2013-01-26 04:21:00,
2013-01-25 23:52:00,18.0,14.0,-100.00,North,357,4.0,9.0,85,0.00,,,0.00,0.000000,,2013-01-26 04:52:00,